Terminal Aerodrome Forecast
Issued by NWS

Current Version | Previous Version | Text Only | Print | Product List | Glossary Off
Versions: 1 2 3 4 5 6 7 8 9 10 11 12 13 14 15 16 17 18 19 20 21 22 23 24

600
FTUS41 KRLX 210214 AAA
TAFCKB
TAF AMD
KCKB 210214Z 2102/2124 20006KT P6SM SCT040 BKN080
      TEMPO 2104/2108 3SM SHRA OVC035
     FM210800 VRB03KT P6SM OVC045
     FM210900 21004KT P6SM VCSH BKN030
     FM211200 23005KT P6SM VCTS OVC015CB
     FM211500 25007KT P6SM BKN025
     FM211800 27010KT P6SM SCT035
     FM212000 27010KT P6SM SCT250=

USA.gov is the U.S. government's official web portal to all federal, state and local government web resources and services.